Time;durP1;ratioP1;P1;durP2;ratioP2;P2;SDS_P1;SDS_P2;PMS_P1;PMS_P2;Temp;Humidity;BMP_temperature;BMP_pressure;BME280_temperature;BME280_humidity;BME280_pressure;Samples;Min_cycle;Max_cycle;Signal;HPM_P1;HPM_P2
2023/01/12 00:00:10;;;;;;;;;;;;;;;19.24;66.01;99037.22;2040135;28;19930;-49
2023/01/12 00:01:14;;;;;;;;;;;;;;;19.23;66.33;99035.56;2039889;28;19937;-51
2023/01/12 00:02:16;;;;;;;;;;;;;;;19.24;66.14;99039.09;2040063;28;19926;-50
2023/01/12 00:03:17;;;;;;;;;;;;;;;19.22;66.20;99023.13;2037475;28;19923;-48
2023/01/12 00:04:18;;;;;;;;;;;;;;;19.24;66.00;99039.91;2037415;28;19984;-51
2023/01/12 00:05:19;;;;;;;;;;;;;;;19.23;66.21;99035.56;2039844;28;19941;-51
2023/01/12 00:06:21;;;;;;;;;;;;;;;19.23;66.20;99035.56;2035950;28;21422;-48
2023/01/12 00:07:22;;;;;;;;;;;;;;;19.22;66.11;99031.19;2041586;28;19931;-49
2023/01/12 00:08:23;;;;;;;;;;;;;;;19.24;66.10;99029.16;2043992;28;19929;-49
2023/01/12 00:09:24;;;;;;;;;;;;;;;19.28;66.31;99035.81;2036053;28;19926;-50
2023/01/12 00:10:24;;;;;;;;;;;;;;;19.27;66.43;99034.13;2038575;28;19926;-52
2023/01/12 00:11:26;;;;;;;;;;;;;;;19.31;66.43;99035.41;2033742;28;24590;-51
2023/01/12 00:12:27;;;;;;;;;;;;;;;19.32;66.22;99023.63;2038888;28;19930;-49
2023/01/12 00:13:28;;;;;;;;;;;;;;;19.34;66.26;99026.94;2041147;28;19991;-47
2023/01/12 00:14:29;;;;;;;;;;;;;;;19.38;66.22;99025.50;2035988;28;20436;-50
2023/01/12 00:16:50;;;;;;;;;;;;;;;19.42;66.06;99029.47;2041860;28;19933;-49
2023/01/12 00:17:51;;;;;;;;;;;;;;;19.43;65.91;99020.34;2040638;28;19926;-50
2023/01/12 00:18:52;;;;;;;;;;;;;;;19.45;66.25;99025.56;2041843;28;19930;-46
2023/01/12 00:19:54;;;;;;;;;;;;;;;19.48;65.94;99021.63;2042395;28;19994;-48
2023/01/12 00:20:54;;;;;;;;;;;;;;;19.49;65.96;99021.41;2039274;28;20984;-46
2023/01/12 00:22:01;;;;;;;;;;;;;;;19.50;66.21;99028.47;2043202;28;19926;-49
2023/01/12 00:23:01;;;;;;;;;;;;;;;19.51;66.26;99026.63;2042827;28;19956;-46
2023/01/12 00:24:06;;;;;;;;;;;;;;;19.53;65.88;99022.69;2039306;28;20941;-48
2023/01/12 00:25:07;;;;;;;;;;;;;;;19.55;66.18;99019.78;2038350;28;19925;-48
2023/01/12 00:26:08;;;;;;;;;;;;;;;19.53;66.15;99028.06;2046424;28;20044;-53
2023/01/12 00:27:11;;;;;;;;;;;;;;;19.52;66.20;99022.88;2038019;28;19926;-50
2023/01/12 00:28:12;;;;;;;;;;;;;;;19.57;65.60;99023.13;2043078;28;20443;-51
2023/01/12 00:29:13;;;;;;;;;;;;;;;19.57;66.13;99023.13;2043397;28;19976;-48
2023/01/12 00:30:15;;;;;;;;;;;;;;;19.58;65.86;99024.75;2040639;28;20351;-46
2023/01/12 00:31:15;;;;;;;;;;;;;;;19.58;66.17;99014.00;2042069;28;19930;-52
2023/01/12 00:32:19;;;;;;;;;;;;;;;19.59;65.95;99018.38;2045933;28;19928;-48
2023/01/12 00:33:19;;;;;;;;;;;;;;;19.59;65.74;99021.06;2042385;28;20441;-50
2023/01/12 00:34:21;;;;;;;;;;;;;;;19.59;65.83;99013.00;2041754;28;19926;-54
2023/01/12 00:35:22;;;;;;;;;;;;;;;19.59;66.32;99018.38;2045019;28;20328;-48
2023/01/12 00:36:23;;;;;;;;;;;;;;;19.61;66.15;99018.97;2045274;28;19922;-52
2023/01/12 00:37:26;;;;;;;;;;;;;;;19.61;65.91;99013.59;2043454;28;20021;-46
2023/01/12 00:38:27;;;;;;;;;;;;;;;19.63;65.86;99019.63;2040680;28;19922;-53
2023/01/12 00:39:28;;;;;;;;;;;;;;;19.61;65.91;99016.28;2043473;28;19987;-47
2023/01/12 00:40:28;;;;;;;;;;;;;;;19.61;65.88;99016.28;2046344;28;19928;-48
2023/01/12 00:45:28;;;;;;;;;;;;;;;19.60;66.12;99018.16;2042882;28;20048;-50
2023/01/12 00:46:29;;;;;;;;;;;;;;;19.61;66.00;99014.44;2043702;28;19937;-49
2023/01/12 00:47:32;;;;;;;;;;;;;;;19.63;65.67;99011.53;2038173;28;20022;-49
2023/01/12 00:48:33;;;;;;;;;;;;;;;19.62;66.08;99009.91;2042385;28;19926;-48
2023/01/12 00:49:34;;;;;;;;;;;;;;;19.63;65.66;99011.53;2042519;28;19926;-53
2023/01/12 00:50:35;;;;;;;;;;;;;;;19.63;66.00;99011.53;2040526;28;21897;-51
2023/01/12 00:51:36;;;;;;;;;;;;;;;19.64;65.80;99007.84;2040632;28;19960;-52
2023/01/12 00:52:37;;;;;;;;;;;;;;;19.63;65.99;99012.38;2040811;28;19961;-51
2023/01/12 00:53:38;;;;;;;;;;;;;;;19.63;65.90;99006.16;2042010;28;19931;-46
2023/01/12 00:54:39;;;;;;;;;;;;;;;19.62;65.84;99004.50;2041535;28;19930;-50
2023/01/12 00:55:40;;;;;;;;;;;;;;;19.62;66.14;98999.97;2040419;28;19934;-49
2023/01/12 00:56:41;;;;;;;;;;;;;;;19.62;65.96;99004.50;2040898;28;19931;-51
2023/01/12 00:57:42;;;;;;;;;;;;;;;19.60;66.29;98999.31;2041530;28;22558;-49
2023/01/12 00:58:42;;;;;;;;;;;;;;;19.59;66.33;98994.97;2042629;28;19967;-48
2023/01/12 00:59:46;;;;;;;;;;;;;;;19.60;65.69;98998.50;2041490;28;20063;-46
2023/01/12 01:00:46;;;;;;;;;;;;;;;19.60;66.28;98998.50;2043337;28;19995;-46
2023/01/12 01:01:48;;;;;;;;;;;;;;;19.63;65.66;98995.41;2043052;28;19930;-47
2023/01/12 01:02:50;;;;;;;;;;;;;;;19.60;65.94;98996.63;2040328;28;19930;-48
2023/01/12 01:03:51;;;;;;;;;;;;;;;19.62;66.20;98993.75;2045931;28;19976;-47
2023/01/12 01:04:52;;;;;;;;;;;;;;;19.60;66.23;98998.50;2039415;28;19926;-46
2023/01/12 01:06:00;;;;;;;;;;;;;;;19.61;66.02;99000.16;2044144;28;19926;-47
2023/01/12 01:07:02;;;;;;;;;;;;;;;19.61;65.91;98992.06;2040197;28;19952;-46
2023/01/12 01:08:02;;;;;;;;;;;;;;;19.59;65.96;98994.97;2041734;28;19926;-47
2023/01/12 01:09:04;;;;;;;;;;;;;;;19.58;65.98;98998.69;2045361;28;19976;-46
2023/01/12 01:10:05;;;;;;;;;;;;;;;19.58;66.48;98990.63;2043550;28;19930;-47
2023/01/12 01:11:07;;;;;;;;;;;;;;;19.57;66.24;98993.53;2045625;28;19936;-46
2023/01/12 01:12:08;;;;;;;;;;;;;;;19.55;66.59;98982.13;2042509;28;20261;-47
2023/01/12 01:13:09;;;;;;;;;;;;;;;19.55;66.60;98987.50;2039306;28;19984;-46
2023/01/12 01:14:10;;;;;;;;;;;;;;;19.53;66.12;98978.78;2041879;28;19926;-46
2023/01/12 01:16:31;;;;;;;;;;;;;;;19.54;66.27;98981.28;2040773;28;19926;-48
2023/01/12 01:17:31;;;;;;;;;;;;;;;19.54;66.02;98980.47;2041534;28;19922;-45
2023/01/12 01:18:35;;;;;;;;;;;;;;;19.54;66.27;98967.03;2041780;28;19926;-48
2023/01/12 01:19:36;;;;;;;;;;;;;;;19.54;66.34;98964.31;2036659;28;19926;-46
2023/01/12 01:20:37;;;;;;;;;;;;;;;19.53;66.24;98962.66;2043040;28;19933;-48
2023/01/12 01:21:39;;;;;;;;;;;;;;;19.54;65.79;98958.94;2037234;28;19926;-45
2023/01/12 01:22:39;;;;;;;;;;;;;;;19.54;66.18;98953.56;2042606;28;20503;-48
2023/01/12 01:23:41;;;;;;;;;;;;;;;19.54;66.30;98950.88;2041024;28;19933;-48
2023/01/12 01:26:02;;;;;;;;;;;;;;;19.55;66.71;98958.72;2044870;28;19926;-48
2023/01/12 01:27:02;;;;;;;;;;;;;;;19.56;66.41;98964.97;2040327;28;20028;-45
2023/01/12 01:28:04;;;;;;;;;;;;;;;19.56;66.63;98968.47;2041099;28;19927;-47
2023/01/12 01:29:04;;;;;;;;;;;;;;;19.55;66.71;98974.06;2040629;28;19926;-46
2023/01/12 01:30:07;;;;;;;;;;;;;;;19.54;66.65;98981.28;2040139;28;19976;-45
2023/01/12 01:31:09;;;;;;;;;;;;;;;19.55;66.88;98977.56;2041506;28;19926;-45
2023/01/12 01:32:10;;;;;;;;;;;;;;;19.58;66.47;98984.41;2038907;28;19926;-45
2023/01/12 01:33:10;;;;;;;;;;;;;;;19.59;66.50;98986.09;2036586;28;20465;-46
2023/01/12 01:34:13;;;;;;;;;;;;;;;19.59;66.42;98988.78;2044764;28;19968;-48
2023/01/12 01:35:14;;;;;;;;;;;;;;;19.58;66.72;98987.91;2039313;28;19926;-45
2023/01/12 01:36:16;;;;;;;;;;;;;;;19.57;66.69;98985.44;2045133;28;20420;-46
2023/01/12 01:37:17;;;;;;;;;;;;;;;19.59;66.28;98992.28;2038542;28;19926;-45
2023/01/12 01:38:18;;;;;;;;;;;;;;;19.57;66.39;98983.59;2038576;28;19926;-45
2023/01/12 01:39:19;;;;;;;;;;;;;;;19.57;66.61;98982.75;2039585;28;19964;-48
2023/01/12 01:40:20;;;;;;;;;;;;;;;19.58;66.47;98992.47;2040873;28;20006;-45
2023/01/12 01:41:22;;;;;;;;;;;;;;;19.58;66.74;98993.31;2036192;28;20024;-46
2023/01/12 01:42:27;;;;;;;;;;;;;;;19.57;66.88;99002.41;2039858;28;19926;-47
2023/01/12 01:43:28;;;;;;;;;;;;;;;19.58;66.65;99000.56;2041704;28;19930;-45
2023/01/12 01:44:49;;;;;;;;;;;;;;;19.57;66.69;99006.97;2037918;28;21311;-45
2023/01/12 01:45:56;;;;;;;;;;;;;;;19.58;66.61;99005.94;2039670;28;19937;-47
2023/01/12 01:47:00;;;;;;;;;;;;;;;19.56;66.92;99003.47;2035687;28;20405;-46
2023/01/12 01:48:01;;;;;;;;;;;;;;;19.58;66.40;99004.06;2033570;28;19938;-45
2023/01/12 01:49:23;;;;;;;;;;;;;;;19.58;66.67;99009.44;2042013;28;19926;-46
2023/01/12 01:50:28;;;;;;;;;;;;;;;19.58;66.54;99005.94;2039977;28;20003;-47
2023/01/12 01:51:28;;;;;;;;;;;;;;;19.58;66.11;99009.44;2037015;28;19926;-46
2023/01/12 01:52:32;;;;;;;;;;;;;;;19.59;66.47;99007.59;2041041;28;20022;-47
2023/01/12 01:53:35;;;;;;;;;;;;;;;19.58;66.51;99008.63;2038553;28;19926;-45
2023/01/12 01:54:40;;;;;;;;;;;;;;;19.57;66.65;99001.59;2039215;28;19927;-47
2023/01/12 01:55:42;;;;;;;;;;;;;;;19.56;66.33;99008.84;2044936;28;23320;-47
2023/01/12 01:56:44;;;;;;;;;;;;;;;19.55;66.63;99015.22;2071484;28;19925;-46
2023/01/12 01:57:47;;;;;;;;;;;;;;;19.54;66.66;99010.88;2050178;28;19987;-46
2023/01/12 01:58:51;;;;;;;;;;;;;;;19.54;66.75;99013.59;2042252;28;20326;-46
2023/01/12 01:59:54;;;;;;;;;;;;;;;19.54;66.29;99018.97;2043363;28;19960;-45
2023/01/12 02:00:56;;;;;;;;;;;;;;;19.53;66.46;99022.69;2038595;28;19937;-47
2023/01/12 02:01:57;;;;;;;;;;;;;;;19.53;66.44;99024.53;2034770;28;19945;-47
2023/01/12 02:03:02;;;;;;;;;;;;;;;19.53;66.19;99027.22;2040565;28;19926;-47
2023/01/12 02:04:03;;;;;;;;;;;;;;;19.52;66.58;99037.16;2039462;28;20422;-46
2023/01/12 02:05:07;;;;;;;;;;;;;;;19.51;66.40;99032.00;2037456;28;19958;-44
2023/01/12 02:06:07;;;;;;;;;;;;;;;19.51;65.87;99037.38;2028244;28;19926;-45
2023/01/12 02:07:09;;;;;;;;;;;;;;;19.51;66.72;99035.50;2039343;28;19989;-44
2023/01/12 02:08:15;;;;;;;;;;;;;;;19.50;66.68;99044.63;2040716;28;20014;-44
2023/01/12 02:09:18;;;;;;;;;;;;;;;19.51;66.59;99038.19;2042233;28;19922;-45
2023/01/12 02:10:19;;;;;;;;;;;;;;;19.51;66.49;99035.50;2037458;28;19922;-46
2023/01/12 02:16:40;;;;;;;;;;;;;;;19.49;66.86;99026.81;2039722;28;20852;-46
2023/01/12 02:17:46;;;;;;;;;;;;;;;19.55;66.54;99022.47;2037203;28;19932;-47
2023/01/12 02:18:52;;;;;;;;;;;;;;;19.55;66.52;99023.31;2040272;28;19923;-47
2023/01/12 02:20:11;;;;;;;;;;;;;;;19.55;66.54;99023.31;2043655;28;20052;-44
2023/01/12 02:21:27;;;;;;;;;;;;;;;19.57;66.75;99023.94;2067175;28;19928;-44
2023/01/12 02:22:39;;;;;;;;;;;;;;;19.59;66.71;99034.50;2041449;28;20333;-48
2023/01/12 02:23:59;;;;;;;;;;;;;;;19.59;66.82;99035.34;2041551;28;19926;-48
2023/01/12 02:25:16;;;;;;;;;;;;;;;19.61;66.25;99040.50;2038828;28;19930;-45
2023/01/12 02:26:48;;;;;;;;;;;;;;;19.61;66.74;99045.88;2064031;28;19966;-45
2023/01/12 02:27:58;;;;;;;;;;;;;;;19.59;66.46;99042.59;2042020;28;19922;-45
2023/01/12 02:29:18;;;;;;;;;;;;;;;19.59;66.14;99037.22;2038318;28;20560;-46
2023/01/12 02:30:45;;;;;;;;;;;;;;;19.61;66.54;99041.34;2062861;28;19936;-45
2023/01/12 02:31:52;;;;;;;;;;;;;;;19.60;66.82;99042.38;2038923;28;20431;-45
2023/01/12 02:32:58;;;;;;;;;;;;;;;19.61;66.42;99043.19;2037194;28;19922;-46
2023/01/12 02:34:04;;;;;;;;;;;;;;;19.62;66.69;99052.94;2039132;28;19928;-46
2023/01/12 02:35:11;;;;;;;;;;;;;;;19.62;66.53;99044.88;2043995;28;19979;-45
2023/01/12 02:36:18;;;;;;;;;;;;;;;19.60;66.50;99045.06;2032950;28;19923;-44
2023/01/12 02:37:25;;;;;;;;;;;;;;;19.62;66.13;99036.81;2039362;28;19956;-46
2023/01/12 02:38:31;;;;;;;;;;;;;;;19.64;66.40;99032.06;2039864;28;19926;-44
2023/01/12 02:39:36;;;;;;;;;;;;;;;19.61;66.43;99030.59;2041898;28;20359;-47
2023/01/12 02:40:42;;;;;;;;;;;;;;;19.61;66.64;99029.75;2039083;28;22153;-47
2023/01/12 02:43:12;;;;;;;;;;;;;;;19.62;65.99;99031.41;2030746;28;19926;-46
2023/01/12 02:44:20;;;;;;;;;;;;;;;19.62;66.64;99036.81;2069086;28;19925;-47
2023/01/12 02:45:29;;;;;;;;;;;;;;;19.62;66.64;99037.63;2037133;28;21029;-45
2023/01/12 02:46:31;;;;;;;;;;;;;;;19.62;66.38;99039.50;2037710;28;20025;-45
2023/01/12 02:47:38;;;;;;;;;;;;;;;19.61;66.50;99040.50;2038582;28;20021;-48
2023/01/12 02:48:43;;;;;;;;;;;;;;;19.58;66.77;99043.59;2037929;28;19969;-45
2023/01/12 02:49:47;;;;;;;;;;;;;;;19.58;66.76;99047.13;2036250;28;20876;-45
2023/01/12 02:50:50;;;;;;;;;;;;;;;19.60;66.34;99038.84;2042233;28;19926;-47
2023/01/12 02:51:53;;;;;;;;;;;;;;;19.59;66.22;99045.28;2037186;28;19949;-44
2023/01/12 02:52:56;;;;;;;;;;;;;;;19.59;66.48;99043.41;2036021;28;20013;-48
2023/01/12 02:54:00;;;;;;;;;;;;;;;19.57;66.52;99041.94;2035649;28;19926;-46
2023/01/12 02:55:01;;;;;;;;;;;;;;;19.58;66.69;99040.91;2044124;28;19958;-47
2023/01/12 02:56:05;;;;;;;;;;;;;;;19.56;66.41;99037.63;2040449;28;19929;-47
2023/01/12 02:57:07;;;;;;;;;;;;;;;19.56;66.63;99043.00;2040587;28;20397;-46
2023/01/12 02:58:11;;;;;;;;;;;;;;;19.57;66.88;99050.03;2034694;28;19934;-45
2023/01/12 02:59:14;;;;;;;;;;;;;;;19.56;66.55;99054.59;2040374;28;19926;-47
2023/01/12 03:00:18;;;;;;;;;;;;;;;19.55;66.65;99047.50;2041493;28;19926;-45
2023/01/12 03:01:19;;;;;;;;;;;;;;;19.56;66.43;99048.38;2040576;28;19955;-45
2023/01/12 03:02:22;;;;;;;;;;;;;;;19.55;66.68;99046.69;2040332;28;19987;-46
2023/01/12 03:03:24;;;;;;;;;;;;;;;19.56;66.87;99059.13;2042563;28;19975;-49
2023/01/12 03:04:27;;;;;;;;;;;;;;;19.55;66.61;99052.91;2038892;28;19922;-48
2023/01/12 03:05:27;;;;;;;;;;;;;;;19.56;66.69;99057.28;2040682;28;20275;-47
2023/01/12 03:06:37;;;;;;;;;;;;;;;19.54;66.79;99056.63;2035635;28;20045;-48
2023/01/12 03:07:43;;;;;;;;;;;;;;;19.55;66.68;99052.06;2043891;28;20454;-49
2023/01/12 03:08:46;;;;;;;;;;;;;;;19.54;67.15;99050.44;2039119;28;19931;-50
2023/01/12 03:09:49;;;;;;;;;;;;;;;19.54;67.22;99042.34;2041080;28;20291;-48
2023/01/12 03:10:55;;;;;;;;;;;;;;;19.53;66.76;99037.97;2044534;28;19922;-47
2023/01/12 03:11:59;;;;;;;;;;;;;;;19.55;66.96;99047.50;2040756;28;19922;-50
2023/01/12 03:13:04;;;;;;;;;;;;;;;19.56;67.30;99043.00;2041920;28;20014;-47
2023/01/12 03:14:06;;;;;;;;;;;;;;;19.57;66.87;99041.94;2038474;28;20462;-50
2023/01/12 03:15:09;;;;;;;;;;;;;;;19.58;67.17;99047.13;2037657;28;20053;-48
2023/01/12 03:16:10;;;;;;;;;;;;;;;19.61;66.88;99048.56;2039596;28;19967;-48
2023/01/12 03:17:16;;;;;;;;;;;;;;;19.62;67.10;99050.25;2037007;28;19937;-48
2023/01/12 03:18:19;;;;;;;;;;;;;;;19.62;66.82;99051.09;2035797;28;20059;-47
2023/01/12 03:19:25;;;;;;;;;;;;;;;19.65;67.03;99047.16;2042896;28;19926;-49
2023/01/12 03:20:27;;;;;;;;;;;;;;;19.64;66.89;99046.34;2039189;28;20397;-51
2023/01/12 03:21:32;;;;;;;;;;;;;;;19.65;66.78;99044.47;2036692;28;20056;-49
2023/01/12 03:22:35;;;;;;;;;;;;;;;19.66;67.08;99040.78;2040448;28;19922;-48
2023/01/12 03:23:40;;;;;;;;;;;;;;;19.68;67.18;99046.78;2037224;28;19992;-49
2023/01/12 03:24:44;;;;;;;;;;;;;;;19.66;66.88;99043.47;2037820;28;19972;-52
2023/01/12 03:25:46;;;;;;;;;;;;;;;19.68;66.87;99052.16;2040435;28;19930;-47
2023/01/12 03:26:50;;;;;;;;;;;;;;;19.67;67.26;99044.28;2037450;28;19976;-49
2023/01/12 03:27:52;;;;;;;;;;;;;;;19.67;66.47;99044.28;2041666;28;20469;-48
2023/01/12 03:28:56;;;;;;;;;;;;;;;19.68;66.89;99045.97;2036097;28;19929;-48
2023/01/12 03:29:58;;;;;;;;;;;;;;;19.68;66.84;99044.09;2034459;28;19948;-49
2023/01/12 03:31:02;;;;;;;;;;;;;;;19.68;67.15;99052.16;2038551;28;19945;-50
2023/01/12 03:32:04;;;;;;;;;;;;;;;19.67;67.18;99050.53;2039785;28;20603;-46
2023/01/12 03:33:05;;;;;;;;;;;;;;;19.67;67.17;99050.53;2039983;28;20977;-47
2023/01/12 03:34:06;;;;;;;;;;;;;;;19.67;66.86;99049.66;2041972;28;20013;-48
2023/01/12 03:35:08;;;;;;;;;;;;;;;19.64;67.26;99051.72;2041526;28;20331;-47
2023/01/12 03:36:15;;;;;;;;;;;;;;;19.66;66.68;99046.16;2040015;28;19937;-48
2023/01/12 03:37:23;;;;;;;;;;;;;;;19.67;67.08;99055.06;2041643;28;19988;-50
2023/01/12 03:38:28;;;;;;;;;;;;;;;19.69;66.78;99053.00;2043997;28;20289;-45
2023/01/12 03:39:34;;;;;;;;;;;;;;;19.69;66.38;99051.13;2037505;28;19951;-48
2023/01/12 03:40:37;;;;;;;;;;;;;;;19.69;67.08;99042.22;2044560;28;19930;-48
2023/01/12 03:41:42;;;;;;;;;;;;;;;19.68;66.50;99046.78;2040469;28;20328;-46
2023/01/12 03:42:46;;;;;;;;;;;;;;;19.68;67.12;99046.78;2039655;28;19936;-45
2023/01/12 03:43:49;;;;;;;;;;;;;;;19.65;67.21;99041.78;2040906;28;19930;-46
2023/01/12 03:44:55;;;;;;;;;;;;;;;19.66;66.86;99048.84;2040933;28;19934;-50
2023/01/12 03:46:00;;;;;;;;;;;;;;;19.67;67.09;99046.97;2037491;28;20451;-46
2023/01/12 03:47:03;;;;;;;;;;;;;;;19.65;66.77;99047.16;2039848;28;19932;-46
2023/01/12 03:48:08;;;;;;;;;;;;;;;19.63;66.95;99041.97;2038451;28;19971;-49
2023/01/12 03:49:13;;;;;;;;;;;;;;;19.64;66.98;99051.72;2037158;28;19931;-52
2023/01/12 03:50:17;;;;;;;;;;;;;;;19.66;66.98;99045.31;2035200;28;21148;-46
2023/01/12 03:51:20;;;;;;;;;;;;;;;19.64;66.76;99043.66;2040472;28;19922;-52
2023/01/12 03:52:21;;;;;;;;;;;;;;;19.62;67.12;99037.63;2042399;28;20279;-47
2023/01/12 03:53:23;;;;;;;;;;;;;;;19.62;66.99;99040.31;2045305;28;19956;-46
2023/01/12 03:54:25;;;;;;;;;;;;;;;19.63;66.80;99049.22;2040956;28;20145;-49
2023/01/12 03:55:28;;;;;;;;;;;;;;;19.60;66.92;99047.75;2043167;28;19982;-51
2023/01/12 03:56:32;;;;;;;;;;;;;;;19.61;66.99;99046.75;2034964;28;20389;-48
2023/01/12 03:57:35;;;;;;;;;;;;;;;19.62;67.01;99044.88;2038168;28;20494;-46
2023/01/12 03:58:36;;;;;;;;;;;;;;;19.60;66.75;99046.94;2041828;28;19931;-48
2023/01/12 03:59:38;;;;;;;;;;;;;;;19.60;66.93;99038.84;2043302;28;19968;-46
2023/01/12 04:00:38;;;;;;;;;;;;;;;19.59;66.71;99047.97;2038447;28;19929;-46
2023/01/12 04:01:40;;;;;;;;;;;;;;;19.57;67.15;99045.47;2035803;28;22437;-49
2023/01/12 04:02:41;;;;;;;;;;;;;;;19.59;66.81;99050.66;2037491;28;19926;-46
2023/01/12 04:03:43;;;;;;;;;;;;;;;19.57;66.97;99055.41;2038800;28;19976;-49
2023/01/12 04:04:43;;;;;;;;;;;;;;;19.56;67.08;99059.97;2036933;28;20310;-48
2023/01/12 04:05:46;;;;;;;;;;;;;;;19.57;67.00;99053.53;2043059;28;19930;-46
2023/01/12 04:06:47;;;;;;;;;;;;;;;19.56;67.06;99048.38;2039911;28;21020;-47
2023/01/12 04:07:48;;;;;;;;;;;;;;;19.56;66.92;99045.69;2041500;28;19926;-48
2023/01/12 04:08:49;;;;;;;;;;;;;;;19.57;66.85;99050.84;2040621;28;20692;-48
2023/01/12 04:09:50;;;;;;;;;;;;;;;19.55;67.07;99052.91;2039574;28;19922;-48
2023/01/12 04:10:51;;;;;;;;;;;;;;;19.56;67.00;99054.59;2037770;28;20248;-51
2023/01/12 04:12:10;;;;;;;;;;;;;;;19.57;67.10;99050.03;2039454;28;19938;-46
2023/01/12 04:13:10;;;;;;;;;;;;;;;19.56;67.04;99051.88;2040368;28;19986;-46
2023/01/12 04:14:11;;;;;;;;;;;;;;;19.57;67.20;99050.03;2040688;28;19938;-49
2023/01/12 04:15:13;;;;;;;;;;;;;;;19.58;67.13;99046.28;2038336;28;19937;-49
2023/01/12 04:16:13;;;;;;;;;;;;;;;19.60;67.23;99057.69;2042254;28;19934;-47
2023/01/12 04:17:15;;;;;;;;;;;;;;;19.58;67.01;99052.50;2039802;28;19937;-45
2023/01/12 04:18:16;;;;;;;;;;;;;;;19.59;67.32;99053.34;2042445;28;19972;-47
2023/01/12 04:19:17;;;;;;;;;;;;;;;19.59;67.35;99067.63;2042598;28;27410;-48
2023/01/12 04:20:18;;;;;;;;;;;;;;;19.59;67.53;99064.94;2044442;28;19930;-49
2023/01/12 04:22:43;;;;;;;;;;;;;;;19.63;67.24;99073.44;2040182;28;19933;-50
2023/01/12 04:23:43;;;;;;;;;;;;;;;19.63;67.08;99063.50;2041185;28;19922;-49
2023/01/12 04:24:44;;;;;;;;;;;;;;;19.63;66.94;99063.50;2039595;28;19922;-47
2023/01/12 04:25:45;;;;;;;;;;;;;;;19.64;67.02;99067.03;2042348;28;19971;-46
2023/01/12 04:26:46;;;;;;;;;;;;;;;19.65;67.18;99057.94;2041250;28;19930;-48
2023/01/12 04:27:48;;;;;;;;;;;;;;;19.65;66.97;99063.31;2040479;28;20020;-45
2023/01/12 04:28:48;;;;;;;;;;;;;;;19.64;66.92;99054.41;2041444;28;19926;-49
2023/01/12 04:29:50;;;;;;;;;;;;;;;19.64;67.03;99058.97;2043995;28;19926;-46
2023/01/12 04:30:50;;;;;;;;;;;;;;;19.63;66.73;99054.59;2038185;28;20370;-49
2023/01/12 04:31:52;;;;;;;;;;;;;;;19.63;67.14;99055.41;2036317;28;19968;-46
2023/01/12 04:32:52;;;;;;;;;;;;;;;19.65;67.04;99055.25;2042493;28;19941;-47
2023/01/12 04:33:54;;;;;;;;;;;;;;;19.67;66.90;99057.75;2043731;28;20341;-46
2023/01/12 04:34:54;;;;;;;;;;;;;;;19.67;66.90;99052.34;2044534;28;19983;-48
2023/01/12 04:35:56;;;;;;;;;;;;;;;19.66;66.90;99048.84;2040763;28;20009;-46
2023/01/12 04:37:00;;;;;;;;;;;;;;;19.67;66.60;99046.97;2043658;28;19969;-48
2023/01/12 04:38:03;;;;;;;;;;;;;;;19.66;66.40;99048.84;2040873;28;20426;-48
2023/01/12 04:39:05;;;;;;;;;;;;;;;19.67;67.04;99060.44;2045235;28;20030;-49
2023/01/12 04:40:07;;;;;;;;;;;;;;;19.65;66.66;99047.16;2041700;28;19962;-49
2023/01/12 04:41:09;;;;;;;;;;;;;;;19.66;67.03;99050.72;2038929;28;20021;-47
2023/01/12 04:42:59;;;;;;;;;;;;;;;19.64;66.70;99048.22;2038911;28;21041;-48
2023/01/12 04:43:30;;;;;;;;;;;;;;;19.64;66.81;99056.28;2038328;28;19926;-46
2023/01/12 04:44:33;;;;;;;;;;;;;;;19.62;67.00;99053.78;2044910;28;19974;-47
2023/01/12 04:45:36;;;;;;;;;;;;;;;19.64;66.76;99054.41;2043114;28;19926;-49
2023/01/12 04:46:37;;;;;;;;;;;;;;;19.64;66.61;99058.97;2040139;28;19972;-47
2023/01/12 04:47:38;;;;;;;;;;;;;;;19.62;67.08;99042.19;2042571;28;19922;-46
2023/01/12 04:48:39;;;;;;;;;;;;;;;19.61;67.08;99049.44;2039649;28;19930;-46
2023/01/12 04:49:40;;;;;;;;;;;;;;;19.62;66.86;99043.00;2041575;28;20398;-47
2023/01/12 04:50:43;;;;;;;;;;;;;;;19.61;66.96;99045.88;2041763;28;19922;-48
2023/01/12 04:51:44;;;;;;;;;;;;;;;19.61;66.96;99054.81;2041620;28;19930;-46
2023/01/12 04:52:46;;;;;;;;;;;;;;;19.61;66.80;99062.03;2043506;28;19968;-46
2023/01/12 04:53:47;;;;;;;;;;;;;;;19.60;66.45;99055.00;2039930;28;19922;-46
2023/01/12 04:54:48;;;;;;;;;;;;;;;19.59;66.67;99056.03;2041668;28;19926;-46
2023/01/12 04:55:49;;;;;;;;;;;;;;;19.59;67.06;99058.72;2043051;28;19926;-49
2023/01/12 04:56:50;;;;;;;;;;;;;;;19.57;66.66;99056.22;2042281;28;19927;-46
2023/01/12 04:57:51;;;;;;;;;;;;;;;19.58;66.90;99062.44;2040256;28;19980;-48
2023/01/12 04:58:55;;;;;;;;;;;;;;;19.59;66.84;99066.81;2042361;28;19980;-46
2023/01/12 04:59:55;;;;;;;;;;;;;;;19.58;66.67;99070.50;2042223;28;20393;-48
2023/01/12 05:00:56;;;;;;;;;;;;;;;19.57;66.93;99074.25;2040255;28;19922;-45
2023/01/12 05:01:57;;;;;;;;;;;;;;;19.56;66.78;99069.91;2038613;28;20313;-47
2023/01/12 05:03:01;;;;;;;;;;;;;;;19.56;66.44;99075.28;2041558;28;19930;-45
2023/01/12 05:04:01;;;;;;;;;;;;;;;19.57;66.54;99071.53;2042815;28;19937;-47
2023/01/12 05:05:04;;;;;;;;;;;;;;;19.55;66.73;99062.84;2039376;28;20167;-49
2023/01/12 05:06:04;;;;;;;;;;;;;;;19.54;66.71;99056.63;2042507;28;19930;-46
2023/01/12 05:07:06;;;;;;;;;;;;;;;19.54;66.89;99051.25;2044852;28;19980;-45
2023/01/12 05:10:48;;;;;;;;;;;;;;;19.60;66.85;99060.38;2051762;28;19923;-45
2023/01/12 05:11:50;;;;;;;;;;;;;;;19.62;66.84;99058.31;2039915;28;19960;-47
2023/01/12 05:12:50;;;;;;;;;;;;;;;19.63;66.89;99054.59;2035222;28;20328;-46
2023/01/12 05:13:51;;;;;;;;;;;;;;;19.69;66.98;99069.16;2040790;28;19926;-46
2023/01/12 05:14:52;;;;;;;;;;;;;;;19.72;66.74;99060.66;2040172;28;19930;-46
2023/01/12 05:15:54;;;;;;;;;;;;;;;19.72;66.66;99063.34;2046080;28;20389;-45
2023/01/12 05:16:55;;;;;;;;;;;;;;;19.72;66.73;99066.88;2042464;28;22231;-48
2023/01/12 05:17:56;;;;;;;;;;;;;;;19.77;65.19;99060.91;2063495;28;21084;-47
2023/01/12 05:18:57;;;;;;;;;;;;;;;19.87;65.91;99066.75;2044089;28;19930;-49
2023/01/12 05:19:58;;;;;;;;;;;;;;;19.89;66.01;99067.34;2036875;28;19925;-46
2023/01/12 05:20:59;;;;;;;;;;;;;;;19.90;66.19;99070.91;2040404;28;27449;-46
2023/01/12 05:22:00;;;;;;;;;;;;;;;19.89;65.88;99063.84;2040718;28;19926;-46
2023/01/12 05:23:01;;;;;;;;;;;;;;;19.89;65.92;99069.22;2030115;28;20017;-47
2023/01/12 05:24:04;;;;;;;;;;;;;;;19.88;66.15;99059.50;2030706;28;19926;-47
2023/01/12 05:25:05;;;;;;;;;;;;;;;19.86;65.87;99054.31;2046174;28;19922;-47
2023/01/12 05:26:06;;;;;;;;;;;;;;;19.84;65.92;99053.69;2040248;28;19949;-46
2023/01/12 05:27:07;;;;;;;;;;;;;;;19.86;66.16;99059.69;2068301;28;19921;-46
2023/01/12 05:28:08;;;;;;;;;;;;;;;19.86;65.80;99063.22;2039207;28;19930;-49
2023/01/12 05:29:10;;;;;;;;;;;;;;;19.86;65.90;99065.06;2035276;28;19926;-46
2023/01/12 05:30:12;;;;;;;;;;;;;;;19.88;65.59;99064.88;2036853;28;20460;-46
2023/01/12 05:31:13;;;;;;;;;;;;;;;19.89;65.92;99078.13;2037215;28;19930;-46
2023/01/12 05:32:14;;;;;;;;;;;;;;;19.89;65.66;99070.06;2037075;28;19980;-46
2023/01/12 05:33:15;;;;;;;;;;;;;;;19.89;65.63;99070.06;2037520;28;19934;-46
2023/01/12 05:34:18;;;;;;;;;;;;;;;19.88;65.38;99068.41;2038011;28;19945;-46
2023/01/12 05:35:19;;;;;;;;;;;;;;;19.90;65.56;99077.13;2038288;28;20419;-46
2023/01/12 05:36:20;;;;;;;;;;;;;;;19.91;65.65;99086.00;2035664;28;21433;-47
2023/01/12 05:37:20;;;;;;;;;;;;;;;19.89;65.31;99086.19;2039386;28;19930;-46
2023/01/12 05:38:22;;;;;;;;;;;;;;;19.90;65.46;99092.44;2039315;28;19983;-46
2023/01/12 05:39:24;;;;;;;;;;;;;;;19.90;65.26;99103.22;2036921;28;19930;-47
2023/01/12 05:40:25;;;;;;;;;;;;;;;19.96;65.33;99111.31;2038406;28;19971;-48
2023/01/12 05:41:26;;;;;;;;;;;;;;;20.01;64.93;99098.06;2037496;28;20616;-48
2023/01/12 05:43:51;;;;;;;;;;;;;;;20.14;65.47;99110.72;2041948;28;19930;-52
2023/01/12 05:44:52;;;;;;;;;;;;;;;20.13;65.30;99109.09;2038495;28;19927;-46
2023/01/12 05:45:53;;;;;;;;;;;;;;;20.09;65.30;99107.84;2039045;28;19936;-47
2023/01/12 05:46:54;;;;;;;;;;;;;;;20.05;65.38;99109.25;2035726;28;19929;-49
2023/01/12 05:47:55;;;;;;;;;;;;;;;20.01;65.60;99110.72;2036736;28;20061;-48